MST,Max TemperatureF,Mean TemperatureF,Min TemperatureF,Max Dew PointF,MeanDew PointF,Min DewpointF,Max Humidity, Mean Humidity, Min Humidity, Max Sea Level PressureIn, Mean Sea Level PressureIn, Min Sea Level PressureIn, Max VisibilityMiles, Mean VisibilityMiles, Min VisibilityMiles, Max Wind SpeedMPH, Mean Wind SpeedMPH, Max Gust SpeedMPH,PrecipitationIn, CloudCover, Events, WindDirDegrees
2013-7-1,95,78,60,43,33,24,39,23,8,29.95,29.88,29.82,10,10,10,13,3,21,0.00,0,,68
2013-7-2,90,72,54,49,42,33,77,36,18,30.28,29.93,29.84,10,10,10,17,5,33,0.01,1,Rain,206
2013-7-3,89,71,53,54,45,37,69,41,16,30.16,29.90,29.76,10,10,7,16,4,23,0.09,1,Rain-Thunderstorm,184
2013-7-4,91,72,53,48,41,34,74,34,14,29.86,29.78,29.73,10,10,10,17,6,31,0.00,1,Rain,272
2013-7-5,89,71,53,51,46,40,84,49,20,30.13,29.83,29.77,10,10,10,20,5,30,0.03,2,Rain,195
2013-7-6,82,67,52,54,50,43,89,66,26,30.18,29.92,29.83,10,10,10,18,4,24,0.13,2,Rain-Thunderstorm,148
2013-7-7,86,67,48,52,46,41,90,50,20,29.99,29.90,29.83,10,10,10,12,3,23,0.00,1,Rain,299
2013-7-8,88,70,53,49,37,30,77,32,13,29.99,29.94,29.89,10,10,10,16,4,22,0.00,1,,230
2013-7-9,90,69,48,37,28,22,59,30,8,30.06,30.01,29.94,10,10,10,13,3,18,0.00,0,,337
2013-7-10,90,69,48,45,34,28,52,30,11,30.05,29.97,29.87,10,10,10,12,2,17,0.00,1,,198
2013-7-11,80,68,55,60,53,44,90,64,35,30.23,29.94,29.88,10,10,9,15,6,25,0.14,4,Rain,221
2013-7-12,77,64,50,57,50,47,94,65,36,30.27,30.01,29.93,10,10,9,16,3,24,0.00,2,Rain,222
2013-7-13,82,65,48,57,47,43,83,56,26,30.10,30.00,29.94,10,10,10,9,2,23,0.01,2,Rain,185
2013-7-14,84,69,54,58,50,42,86,59,25,30.25,30.01,29.91,10,10,8,18,3,28,0.03,4,Rain-Thunderstorm,59
2013-7-15,82,68,55,61,53,45,84,61,29,30.19,29.96,29.85,10,10,2,14,5,20,0.05,4,Rain-Thunderstorm,49
2013-7-16,78,66,55,59,55,47,93,76,33,30.29,30.04,29.90,10,8,1,12,4,28,0.33,4,Rain,181
2013-7-17,78,65,52,59,54,50,93,69,40,30.35,30.11,30.03,10,10,6,14,2,23,0.14,4,Rain-Thunderstorm,156
2013-7-18,82,68,55,59,54,50,90,67,34,30.25,30.03,29.95,10,10,10,16,2,24,0.04,4,Rain,58
2013-7-19,82,70,57,57,52,48,87,56,31,30.25,29.98,29.89,10,10,9,10,2,,0.00,3,Rain-Thunderstorm,213
2013-7-20,84,70,57,58,52,45,84,57,26,30.24,29.91,29.78,10,10,7,12,3,16,0.08,3,Rain-Thunderstorm,82
2013-7-21,79,69,59,59,54,49,90,63,40,30.23,29.92,29.79,10,10,5,13,4,23,0.38,2,Rain-Thunderstorm,207
2013-7-22,75,67,59,61,57,54,90,75,50,30.31,30.03,29.90,10,10,10,10,5,,0.06,5,Rain,220
2013-7-23,78,66,55,57,54,49,93,66,36,30.02,29.98,29.93,10,10,10,12,3,16,0.00,2,,179
2013-7-24,84,72,60,56,51,44,81,46,25,29.98,29.93,29.87,10,10,10,13,4,20,0.00,2,,277
2013-7-25,89,73,57,56,53,43,87,58,20,30.04,29.98,29.92,10,10,10,12,3,22,0.00,2,,197
2013-7-26,84,70,55,57,54,51,89,64,33,30.38,30.10,30.02,10,10,10,15,3,26,0.03,2,Rain-Thunderstorm,180
2013-7-27,75,65,55,59,56,52,94,79,43,30.28,30.08,29.93,10,9,2,15,3,25,0.17,4,Rain-Thunderstorm,246
2013-7-28,72,62,53,60,54,48,94,81,53,30.24,29.97,29.90,10,9,0,12,3,36,0.60,4,Rain-Thunderstorm,217
2013-7-29,79,65,51,54,49,43,93,60,29,30.10,30.01,29.96,10,10,9,17,5,25,0.01,1,,223
2013-7-30,82,65,48,49,44,39,90,53,21,30.19,30.14,30.10,10,10,10,13,4,20,0.00,1,,218
2013-7-31,84,66,48,51,45,41,89,49,23,30.15,30.09,30.00,10,10,10,15,3,22,0.00,2,,227